Terminal Aerodrome Forecast
Issued by NWS

Home | Current Version | Previous Version | Text Only | Print | Product List | Glossary On
Versions: 1 2 3 4 5 6 7 8 9 10 11 12 13 14 15 16 17 18
000
FTUS41 KLWX 222323
TAFMTN
TAF
KMTN 222323Z 2300/2324 31011G21KT P6SM SCT060
     FM230200 31009KT P6SM FEW070
     FM231000 34005KT P6SM SKC
     FM231800 28005KT P6SM SKC
     FM232200 22004KT P6SM FEW200
      AMD NOT SKED 2302/2312=

USA.gov is the U.S. government's official web portal to all federal, state and local government web resources and services.